Time;durP1;ratioP1;P1;durP2;ratioP2;P2;SDS_P1;SDS_P2;PMS_P1;PMS_P2;Temp;Humidity;BMP_temperature;BMP_pressure;BME280_temperature;BME280_humidity;BME280_pressure;Samples;Min_cycle;Max_cycle;Signal;HPM_P1;HPM_P2
2022/11/03 00:02:16;;;;;;;17.50;8.10;;;7.90;99.90;;;;;;5047572;28;20096;-76
2022/11/03 00:04:42;;;;;;;16.50;8.43;;;7.90;99.90;;;;;;5046339;28;20024;-75
2022/11/03 00:07:18;;;;;;;22.63;9.32;;;7.90;99.90;;;;;;5045816;28;20055;-75
2022/11/03 00:09:44;;;;;;;17.38;8.70;;;7.90;99.90;;;;;;5041837;28;20028;-76
2022/11/03 00:12:09;;;;;;;15.50;9.05;;;7.90;99.90;;;;;;5046811;28;20479;-76
2022/11/03 00:14:35;;;;;;;16.55;8.82;;;7.90;99.90;;;;;;5043623;28;20160;-76
2022/11/03 00:17:01;;;;;;;19.90;9.23;;;7.90;99.90;;;;;;5046970;28;20024;-76
2022/11/03 00:19:27;;;;;;;16.88;8.25;;;7.90;99.90;;;;;;5045861;28;20658;-76
2022/11/03 00:21:52;;;;;;;13.57;7.35;;;7.90;99.90;;;;;;5044938;28;20403;-77
2022/11/03 00:24:18;;;;;;;16.23;8.02;;;7.90;99.90;;;;;;5046199;28;20155;-77
2022/11/03 00:26:44;;;;;;;15.07;7.50;;;7.90;99.90;;;;;;5041659;28;20029;-77
2022/11/03 00:29:13;;;;;;;12.32;7.10;;;7.90;99.90;;;;;;5044696;28;20018;-75
2022/11/03 00:31:41;;;;;;;14.90;7.68;;;7.80;99.90;;;;;;5043067;28;20478;-77
2022/11/03 00:34:07;;;;;;;13.75;7.30;;;7.80;99.90;;;;;;5043599;28;20025;-75
2022/11/03 00:36:43;;;;;;;13.27;7.18;;;7.70;99.90;;;;;;5041062;28;20037;-76
2022/11/03 00:39:09;;;;;;;14.48;8.20;;;7.70;99.90;;;;;;5046654;28;20030;-77
2022/11/03 00:41:35;;;;;;;17.05;8.85;;;7.70;99.90;;;;;;5045371;28;20453;-77
2022/11/03 00:44:04;;;;;;;17.30;9.75;;;7.70;99.90;;;;;;5046516;28;20166;-76
2022/11/03 00:46:33;;;;;;;15.63;10.27;;;7.60;99.90;;;;;;5045369;28;20070;-77
2022/11/03 00:49:03;;;;;;;18.45;10.25;;;7.60;99.90;;;;;;5049441;28;20032;-76
2022/11/03 00:51:29;;;;;;;18.90;10.00;;;7.60;99.90;;;;;;5050439;28;20064;-77
2022/11/03 00:53:59;;;;;;;17.30;9.48;;;7.60;99.90;;;;;;5053544;28;20065;-77
2022/11/03 00:56:36;;;;;;;14.90;7.55;;;7.60;99.90;;;;;;5053148;28;20051;-77
2022/11/03 00:59:03;;;;;;;14.48;7.72;;;7.50;99.90;;;;;;5051783;28;20113;-76
2022/11/03 01:01:32;;;;;;;16.60;7.85;;;7.50;99.90;;;;;;5053424;28;20058;-76
2022/11/03 01:06:54;;;;;;;16.73;8.15;;;7.40;99.90;;;;;;5048888;28;20044;-76
2022/11/03 01:09:39;;;;;;;16.20;8.07;;;7.40;99.90;;;;;;5049368;28;20108;-77
2022/11/03 01:12:12;;;;;;;16.75;8.57;;;7.40;99.90;;;;;;5052212;28;20478;-76
2022/11/03 01:14:41;;;;;;;20.00;9.52;;;7.30;99.90;;;;;;5044986;28;20444;-76
2022/11/03 01:17:15;;;;;;;16.75;8.90;;;7.30;99.90;;;;;;5049287;28;20028;-75
2022/11/03 01:19:40;;;;;;;22.25;9.65;;;7.30;99.90;;;;;;5051612;28;20028;-77
2022/11/03 01:22:06;;;;;;;21.65;9.15;;;7.30;99.90;;;;;;5047556;28;20032;-77
2022/11/03 01:24:33;;;;;;;18.88;9.18;;;7.30;99.90;;;;;;5049691;28;20070;-78
2022/11/03 01:27:02;;;;;;;17.65;8.75;;;7.20;99.90;;;;;;5053940;28;20057;-77
2022/11/03 01:29:27;;;;;;;19.17;9.60;;;7.20;99.90;;;;;;5051710;28;20036;-78
2022/11/03 01:31:53;;;;;;;14.82;9.15;;;7.20;99.90;;;;;;5057095;28;20024;-77
2022/11/03 01:34:20;;;;;;;16.83;9.40;;;7.20;99.90;;;;;;5055322;28;20036;-79
2022/11/03 01:36:46;;;;;;;15.25;9.57;;;7.20;99.90;;;;;;5056561;28;20049;-78
2022/11/03 01:39:14;;;;;;;15.25;8.52;;;7.20;99.90;;;;;;5050303;28;20567;-78
2022/11/03 01:41:41;;;;;;;16.63;8.77;;;7.20;99.90;;;;;;5057668;28;20074;-78
2022/11/03 01:44:09;;;;;;;15.32;8.57;;;7.10;99.90;;;;;;5058378;28;20025;-78
2022/11/03 01:46:49;;;;;;;22.48;8.80;;;7.10;99.90;;;;;;5057761;28;20049;-78
2022/11/03 01:49:23;;;;;;;18.98;8.75;;;7.10;99.90;;;;;;5048660;28;20036;-78
2022/11/03 01:52:15;;;;;;;15.50;8.40;;;7.10;99.90;;;;;;5058824;28;20025;-78
2022/11/03 01:55:18;;;;;;;13.82;7.88;;;7.00;99.90;;;;;;5060317;28;20033;-79
2022/11/03 01:57:50;;;;;;;11.18;7.10;;;7.00;99.90;;;;;;5073625;28;20064;-78
2022/11/03 02:00:16;;;;;;;13.20;7.35;;;6.90;99.90;;;;;;5058746;28;20493;-78
2022/11/03 02:02:42;;;;;;;13.23;6.90;;;6.90;99.90;;;;;;5052214;28;20047;-79
2022/11/03 02:05:09;;;;;;;12.52;7.80;;;6.90;99.90;;;;;;5059467;28;20481;-79
2022/11/03 02:07:42;;;;;;;16.13;7.90;;;6.90;99.90;;;;;;5058695;28;20505;-79
2022/11/03 02:10:08;;;;;;;14.25;8.18;;;6.80;99.90;;;;;;5051774;28;20182;-79
2022/11/03 02:12:35;;;;;;;13.75;7.38;;;6.80;99.90;;;;;;5048321;28;20029;-78
2022/11/03 02:15:17;;;;;;;11.43;6.75;;;6.80;99.90;;;;;;5050811;28;20114;-78
2022/11/03 02:17:45;;;;;;;15.45;7.57;;;6.80;99.90;;;;;;5056596;28;20382;-79
2022/11/03 02:20:27;;;;;;;16.17;7.25;;;6.70;99.90;;;;;;5057897;28;20020;-79
2022/11/03 02:23:01;;;;;;;16.88;7.50;;;6.70;99.90;;;;;;5056160;28;20056;-79
2022/11/03 02:25:39;;;;;;;11.77;6.88;;;6.70;99.90;;;;;;5049889;28;20375;-79
2022/11/03 02:28:20;;;;;;;13.60;7.32;;;6.70;99.90;;;;;;5054505;28;20029;-79
2022/11/03 02:30:48;;;;;;;15.68;7.38;;;6.70;99.90;;;;;;5056598;28;20456;-79
2022/11/03 02:33:32;;;;;;;12.10;7.00;;;6.60;99.90;;;;;;5056503;28;20459;-78
2022/11/03 02:36:17;;;;;;;12.43;6.80;;;6.60;99.90;;;;;;5057151;28;20032;-78
2022/11/03 02:38:59;;;;;;;12.25;6.03;;;6.50;99.90;;;;;;5054695;28;24148;-78
2022/11/03 02:41:27;;;;;;;13.98;6.60;;;6.50;99.90;;;;;;5052934;28;20179;-78
2022/11/03 02:43:55;;;;;;;9.18;6.18;;;6.50;99.90;;;;;;5054313;28;20070;-78
2022/11/03 02:46:24;;;;;;;11.18;6.55;;;6.50;99.90;;;;;;5055907;28;20056;-78
2022/11/03 02:48:56;;;;;;;13.90;7.32;;;6.50;99.90;;;;;;5046681;28;20040;-78
2022/11/03 02:51:23;;;;;;;12.77;6.70;;;6.50;99.90;;;;;;5042937;28;20028;-78
2022/11/03 02:54:01;;;;;;;16.67;7.05;;;6.50;99.90;;;;;;5047312;28;20033;-78
2022/11/03 02:56:29;;;;;;;14.85;7.78;;;6.50;99.90;;;;;;5046564;28;20021;-78
2022/11/03 02:59:07;;;;;;;14.18;8.02;;;6.40;99.90;;;;;;5050521;28;20120;-79
2022/11/03 03:01:47;;;;;;;20.13;8.60;;;6.40;99.90;;;;;;5048544;28;20029;-78
2022/11/03 03:04:28;;;;;;;13.85;8.30;;;6.40;99.90;;;;;;5067742;28;20102;-78
2022/11/03 03:07:01;;;;;;;18.00;8.25;;;6.40;99.90;;;;;;5050736;28;20390;-78
2022/11/03 03:09:34;;;;;;;12.98;8.40;;;6.40;99.90;;;;;;5045521;28;20021;-78
2022/11/03 03:12:02;;;;;;;15.00;8.57;;;6.40;99.90;;;;;;5047524;28;20043;-80
2022/11/03 03:14:36;;;;;;;15.23;8.68;;;6.40;99.90;;;;;;5043984;28;20017;-78
2022/11/03 03:17:24;;;;;;;15.07;7.68;;;6.40;99.90;;;;;;5050557;28;20031;-78
2022/11/03 03:20:16;;;;;;;14.98;8.45;;;6.30;99.90;;;;;;5056641;28;20017;-80
2022/11/03 03:23:01;;;;;;;12.80;7.43;;;6.40;99.90;;;;;;5048547;28;20024;-78
2022/11/03 03:25:56;;;;;;;14.13;6.72;;;6.30;99.90;;;;;;5052292;28;20359;-77
2022/11/03 03:28:28;;;;;;;;;;;6.30;99.90;;;;;;5052001;28;20045;-79
2022/11/03 03:31:00;;;;;;;11.82;7.72;;;6.40;99.90;;;;;;5049588;28;19909;-79
2022/11/03 03:33:33;;;;;;;11.55;6.95;;;6.40;99.90;;;;;;5053518;28;20025;-78
2022/11/03 03:36:06;;;;;;;16.75;7.50;;;6.30;99.90;;;;;;5054436;28;20036;-78
2022/11/03 03:38:37;;;;;;;14.15;7.53;;;6.30;99.90;;;;;;5054093;28;20033;-79
2022/11/03 03:41:06;;;;;;;12.43;6.72;;;6.30;99.90;;;;;;5051510;28;20029;-79
2022/11/03 03:43:33;;;;;;;14.13;6.55;;;6.30;99.90;;;;;;5055358;28;20163;-79
2022/11/03 03:46:25;;;;;;;12.55;6.07;;;6.30;99.90;;;;;;5055263;28;20088;-80
2022/11/03 03:48:51;;;;;;;11.57;6.03;;;6.30;99.90;;;;;;5046314;28;20037;-79
2022/11/03 03:51:21;;;;;;;14.52;6.55;;;6.30;99.90;;;;;;5053001;28;20037;-78
2022/11/03 03:53:51;;;;;;;9.85;5.43;;;6.30;99.90;;;;;;5054624;28;20029;-79
2022/11/03 03:56:53;;;;;;;10.35;5.43;;;6.20;99.90;;;;;;5051386;28;20044;-78
2022/11/03 03:59:21;;;;;;;13.57;6.03;;;6.20;99.90;;;;;;5049105;28;20043;-78
2022/11/03 04:01:47;;;;;;;12.15;6.20;;;6.20;99.90;;;;;;5046945;28;20040;-78
2022/11/03 04:04:16;;;;;;;10.50;5.85;;;6.20;99.90;;;;;;5050046;28;20041;-77
2022/11/03 04:06:42;;;;;;;10.00;6.22;;;6.10;99.90;;;;;;5047536;28;20083;-77
2022/11/03 04:09:08;;;;;;;11.70;6.10;;;6.10;99.90;;;;;;5044352;28;20029;-77
2022/11/03 04:22:46;;;;;;;;;;;5.90;99.90;;;;;;5053961;28;20067;-78
2022/11/03 04:25:15;;;;;;;14.23;5.88;;;5.90;99.90;;;;;;5049403;28;19913;-77
2022/11/03 04:27:43;;;;;;;16.75;5.88;;;5.90;99.90;;;;;;5056926;28;20039;-78
2022/11/03 04:30:16;;;;;;;10.48;6.57;;;5.90;99.90;;;;;;5058815;28;20028;-78
2022/11/03 04:32:49;;;;;;;15.97;6.83;;;5.80;99.90;;;;;;5057730;28;20035;-78
2022/11/03 04:35:24;;;;;;;11.88;6.57;;;5.80;99.90;;;;;;5054646;28;20028;-78
2022/11/03 04:38:19;;;;;;;11.60;6.57;;;5.80;99.90;;;;;;5057192;28;20129;-78
2022/11/03 04:40:56;;;;;;;11.85;6.80;;;5.80;99.90;;;;;;5051605;28;20103;-77
2022/11/03 04:43:30;;;;;;;13.18;6.70;;;5.70;99.90;;;;;;5053276;28;20112;-78
2022/11/03 04:45:59;;;;;;;13.40;6.75;;;5.80;99.90;;;;;;5059864;28;20025;-79
2022/11/03 04:48:26;;;;;;;12.00;6.38;;;5.80;99.90;;;;;;5054523;28;20033;-77
2022/11/03 04:50:58;;;;;;;13.45;6.35;;;5.70;99.90;;;;;;5058012;28;20061;-79
2022/11/03 04:53:26;;;;;;;12.50;5.97;;;5.80;99.90;;;;;;5054592;28;20073;-78
2022/11/03 04:55:53;;;;;;;10.77;5.68;;;5.70;99.90;;;;;;5051837;28;20029;-78
2022/11/03 04:58:28;;;;;;;13.50;5.88;;;5.70;99.90;;;;;;5057604;28;20017;-78
2022/11/03 05:00:58;;;;;;;8.57;5.45;;;5.80;99.90;;;;;;5053516;28;20021;-78
2022/11/03 05:03:29;;;;;;;14.63;6.00;;;5.70;99.90;;;;;;5055783;28;20037;-77
2022/11/03 05:06:08;;;;;;;10.90;6.03;;;5.70;99.90;;;;;;5057639;28;20037;-80
2022/11/03 05:08:34;;;;;;;10.95;5.63;;;5.70;99.90;;;;;;5048553;28;20033;-79
2022/11/03 05:11:00;;;;;;;11.32;5.75;;;5.70;99.90;;;;;;5053448;28;20025;-78
2022/11/03 05:13:27;;;;;;;10.88;6.55;;;5.70;99.90;;;;;;5045846;28;20064;-80
2022/11/03 05:16:03;;;;;;;10.50;5.72;;;5.60;99.90;;;;;;5054170;28;20079;-80
2022/11/03 05:18:31;;;;;;;9.82;5.55;;;5.60;99.90;;;;;;5051218;28;20033;-79
2022/11/03 05:21:02;;;;;;;12.82;6.65;;;5.60;99.90;;;;;;5054221;28;20115;-78
2022/11/03 05:23:35;;;;;;;15.70;6.28;;;5.60;99.90;;;;;;5057712;28;20036;-79
2022/11/03 05:26:01;;;;;;;9.73;5.95;;;5.60;99.90;;;;;;5052545;28;20053;-80
2022/11/03 05:28:40;;;;;;;13.35;5.45;;;5.50;99.90;;;;;;5057475;28;20405;-78
2022/11/03 05:31:21;;;;;;;12.27;5.95;;;5.60;99.90;;;;;;5055147;28;20025;-78
2022/11/03 05:33:48;;;;;;;11.10;6.60;;;5.50;99.90;;;;;;5054928;28;20041;-78
2022/11/03 05:36:23;;;;;;;14.77;6.45;;;5.50;99.90;;;;;;5060282;28;20021;-77
2022/11/03 05:38:50;;;;;;;11.15;6.70;;;5.50;99.90;;;;;;5053779;28;20032;-78
2022/11/03 05:41:24;;;;;;;15.57;7.60;;;5.40;99.90;;;;;;5056979;28;20017;-78
2022/11/03 05:44:00;;;;;;;13.20;8.27;;;5.50;99.90;;;;;;5049972;28;20029;-78
2022/11/03 05:46:30;;;;;;;13.23;7.68;;;5.40;99.90;;;;;;5058406;28;20026;-78
2022/11/03 05:49:00;;;;;;;11.93;7.55;;;5.40;99.90;;;;;;5052547;28;20035;-78
2022/11/03 05:51:31;;;;;;;11.02;7.00;;;5.40;99.90;;;;;;5051868;28;20029;-78
2022/11/03 05:54:00;;;;;;;13.07;7.32;;;5.40;99.90;;;;;;5054426;28;20037;-78
2022/11/03 05:56:26;;;;;;;13.20;7.80;;;5.40;99.90;;;;;;5053428;28;20025;-77
2022/11/03 05:58:55;;;;;;;12.98;7.32;;;5.40;99.90;;;;;;5051117;28;20033;-78
2022/11/03 06:01:36;;;;;;;15.73;6.97;;;5.40;99.90;;;;;;5050745;28;20021;-78
2022/11/03 06:04:40;;;;;;;12.25;6.95;;;5.40;99.90;;;;;;5069897;28;20071;-78
2022/11/03 06:07:44;;;;;;;10.43;6.80;;;5.40;99.90;;;;;;5057705;28;20032;-77
2022/11/03 06:10:31;;;;;;;15.63;7.63;;;5.30;99.90;;;;;;5045283;28;20522;-78
2022/11/03 06:13:06;;;;;;;13.52;7.05;;;5.30;99.90;;;;;;5044150;28;20115;-78
2022/11/03 06:15:34;;;;;;;11.40;6.63;;;5.30;99.90;;;;;;5045131;28;20358;-77
2022/11/03 06:18:20;;;;;;;10.95;6.95;;;5.30;99.90;;;;;;5042131;28;20044;-70
2022/11/03 06:21:18;;;;;;;13.55;7.68;;;5.30;99.90;;;;;;5045396;28;20036;-69
2022/11/03 06:23:54;;;;;;;11.23;6.85;;;5.30;99.90;;;;;;5041482;28;20029;-69
2022/11/03 06:26:23;;;;;;;13.70;7.40;;;5.30;99.90;;;;;;5045090;28;20021;-70
2022/11/03 06:28:50;;;;;;;12.73;6.80;;;5.40;99.90;;;;;;5042444;28;20059;-70
2022/11/03 06:31:30;;;;;;;11.30;6.65;;;5.50;99.90;;;;;;5041257;28;20105;-70
2022/11/03 06:33:57;;;;;;;12.25;6.82;;;5.50;99.90;;;;;;5043881;28;20045;-78
2022/11/03 06:36:33;;;;;;;14.35;7.35;;;5.60;99.90;;;;;;5045756;28;20063;-78
2022/11/03 06:39:08;;;;;;;14.38;7.88;;;5.60;99.90;;;;;;5048271;28;20021;-77
2022/11/03 06:41:35;;;;;;;15.73;8.45;;;5.60;99.90;;;;;;5044099;28;20029;-76
2022/11/03 06:44:27;;;;;;;13.23;7.50;;;5.60;99.90;;;;;;5036350;28;20557;-75
2022/11/03 06:47:02;;;;;;;14.15;7.90;;;5.60;99.90;;;;;;5047905;28;20055;-76
2022/11/03 06:49:28;;;;;;;15.30;7.95;;;5.60;99.90;;;;;;5045480;28;20049;-75
2022/11/03 06:52:32;;;;;;;14.30;7.57;;;5.60;99.90;;;;;;5044205;28;20524;-75
2022/11/03 06:55:14;;;;;;;15.38;7.72;;;5.60;99.90;;;;;;5045513;28;20032;-76
2022/11/03 06:57:46;;;;;;;14.23;7.35;;;5.70;99.90;;;;;;5041107;28;20075;-75
2022/11/03 07:00:25;;;;;;;14.35;7.65;;;5.70;99.90;;;;;;5048281;28;20013;-75
2022/11/03 07:03:17;;;;;;;13.73;7.18;;;5.70;99.90;;;;;;5045857;28;20021;-75
2022/11/03 07:05:46;;;;;;;10.38;6.40;;;5.70;99.90;;;;;;5043770;28;20033;-75
2022/11/03 07:08:22;;;;;;;11.88;6.32;;;5.80;99.90;;;;;;5036166;28;20052;-75
2022/11/03 07:10:56;;;;;;;9.65;5.25;;;5.90;99.90;;;;;;5033338;28;20036;-76
2022/11/03 07:13:23;;;;;;;8.95;5.97;;;5.90;99.90;;;;;;5045146;28;20036;-75
2022/11/03 07:15:50;;;;;;;12.82;7.07;;;6.00;99.90;;;;;;5045864;28;20040;-75
2022/11/03 07:18:26;;;;;;;15.52;7.35;;;6.00;99.90;;;;;;5043448;28;20468;-75
2022/11/03 07:20:54;;;;;;;12.20;6.47;;;6.00;99.90;;;;;;5043082;28;20044;-77
2022/11/03 07:23:28;;;;;;;11.25;6.32;;;6.10;99.90;;;;;;5047558;28;20111;-79
2022/11/03 07:25:57;;;;;;;11.13;6.28;;;6.10;99.90;;;;;;5045883;28;20028;-77
2022/11/03 07:28:33;;;;;;;8.45;5.47;;;6.20;99.90;;;;;;5039767;28;20402;-78
2022/11/03 07:31:01;;;;;;;13.32;6.60;;;6.20;99.90;;;;;;5050229;28;20021;-77
2022/11/03 07:33:29;;;;;;;8.75;5.72;;;6.20;99.90;;;;;;5043143;28;20534;-78
2022/11/03 07:35:56;;;;;;;10.18;6.32;;;6.30;99.90;;;;;;5047009;28;21164;-78
2022/11/03 07:38:25;;;;;;;12.63;6.95;;;6.30;99.90;;;;;;5046990;28;20448;-77
2022/11/03 07:40:52;;;;;;;11.65;6.22;;;6.40;99.90;;;;;;5044200;28;20032;-76
2022/11/03 07:43:23;;;;;;;14.93;6.45;;;6.40;99.90;;;;;;5040990;28;20367;-77
2022/11/03 07:45:57;;;;;;;13.68;7.05;;;6.50;99.90;;;;;;5047758;28;20025;-78
2022/11/03 07:48:27;;;;;;;10.50;6.47;;;6.50;99.90;;;;;;5046990;28;20017;-76
2022/11/03 07:50:59;;;;;;;9.57;7.00;;;6.60;99.90;;;;;;5047529;28;20115;-77
2022/11/03 07:53:40;;;;;;;9.13;6.05;;;6.60;99.90;;;;;;5046700;28;20091;-76
2022/11/03 07:56:24;;;;;;;13.18;6.22;;;6.70;99.90;;;;;;5045030;28;20029;-77
2022/11/03 07:58:54;;;;;;;12.00;6.17;;;6.80;99.90;;;;;;5044972;28;20025;-75
2022/11/03 08:01:24;;;;;;;11.63;6.07;;;6.80;99.90;;;;;;5032368;28;20270;-74
2022/11/03 08:03:51;;;;;;;9.40;6.32;;;6.90;99.90;;;;;;5033354;28;20096;-76
2022/11/03 08:06:23;;;;;;;11.40;7.00;;;6.90;99.90;;;;;;5039663;28;20033;-78
2022/11/03 08:08:48;;;;;;;11.00;7.65;;;7.00;99.90;;;;;;5048280;28;20482;-77
2022/11/03 08:11:14;;;;;;;14.57;7.03;;;7.00;99.90;;;;;;5047374;28;20029;-77
2022/11/03 08:13:40;;;;;;;9.57;6.20;;;7.00;99.90;;;;;;5045839;28;20024;-77
2022/11/03 08:16:06;;;;;;;10.93;5.55;;;7.00;99.90;;;;;;5042370;28;20565;-77
2022/11/03 08:18:35;;;;;;;10.00;5.13;;;7.00;99.90;;;;;;5042871;28;21029;-77
2022/11/03 08:21:04;;;;;;;13.00;5.38;;;7.00;99.90;;;;;;5046018;28;20071;-77
2022/11/03 08:23:36;;;;;;;9.50;4.53;;;7.10;99.90;;;;;;5047565;28;20029;-77
2022/11/03 08:26:02;;;;;;;10.18;5.40;;;7.10;99.90;;;;;;5047536;28;20017;-77
2022/11/03 08:28:28;;;;;;;10.20;5.22;;;7.10;99.90;;;;;;5046153;28;20024;-77
2022/11/03 08:30:54;;;;;;;10.77;5.95;;;7.20;99.90;;;;;;5044415;28;20029;-77
2022/11/03 08:33:19;;;;;;;10.20;6.18;;;7.20;99.90;;;;;;5044081;28;20037;-77
2022/11/03 08:35:45;;;;;;;10.85;6.30;;;7.20;99.90;;;;;;5045800;28;20029;-77
2022/11/03 08:38:17;;;;;;;7.80;5.97;;;7.20;99.90;;;;;;5051746;28;20064;-77
2022/11/03 08:40:46;;;;;;;9.65;5.45;;;7.30;99.90;;;;;;5047783;28;20025;-77
2022/11/03 08:43:11;;;;;;;8.75;5.32;;;7.40;99.90;;;;;;5048411;28;20469;-77
2022/11/03 08:45:37;;;;;;;10.25;5.43;;;7.40;99.90;;;;;;5050185;28;20033;-78
2022/11/03 08:48:08;;;;;;;13.55;5.50;;;7.50;99.90;;;;;;5045368;28;20025;-77
2022/11/03 08:50:34;;;;;;;11.57;5.32;;;7.60;99.90;;;;;;5045724;28;20021;-78
2022/11/03 08:53:09;;;;;;;9.90;5.35;;;7.60;99.90;;;;;;5051224;28;20537;-77
2022/11/03 08:55:34;;;;;;;9.75;4.95;;;7.60;99.90;;;;;;5044639;28;20040;-77
2022/11/03 08:58:00;;;;;;;12.23;5.32;;;7.70;99.90;;;;;;5044999;28;20044;-77
2022/11/03 09:00:32;;;;;;;10.77;5.22;;;7.80;99.90;;;;;;5046396;28;20490;-77
2022/11/03 09:02:58;;;;;;;9.95;5.47;;;7.90;99.90;;;;;;5048504;28;20029;-77
2022/11/03 09:05:26;;;;;;;8.07;4.72;;;8.00;99.90;;;;;;5044926;28;20120;-78
2022/11/03 09:07:52;;;;;;;15.18;5.15;;;8.00;99.90;;;;;;5043984;28;20029;-77
2022/11/03 09:10:18;;;;;;;8.18;4.97;;;8.10;99.90;;;;;;5049305;28;20029;-77
2022/11/03 09:12:43;;;;;;;7.13;4.97;;;8.20;99.90;;;;;;5048516;28;20029;-77
2022/11/03 09:15:09;;;;;;;9.60;5.18;;;8.20;99.90;;;;;;5048045;28;20124;-75
2022/11/03 09:20:11;;;;;;;9.90;4.93;;;8.30;99.90;;;;;;5037147;28;20037;-78
2022/11/03 09:22:37;;;;;;;10.50;5.30;;;8.40;99.90;;;;;;5040833;28;20026;-78
2022/11/03 09:25:03;;;;;;;11.88;5.82;;;8.50;99.90;;;;;;5036042;28;20020;-78
2022/11/03 09:27:32;;;;;;;10.05;5.00;;;8.60;99.90;;;;;;5054632;28;20022;-78
2022/11/03 09:29:58;;;;;;;9.90;4.93;;;8.60;99.90;;;;;;5037827;28;20032;-78
2022/11/03 09:32:30;;;;;;;8.73;4.32;;;8.70;99.90;;;;;;5029911;28;20573;-78
2022/11/03 09:34:58;;;;;;;10.90;5.13;;;8.80;99.90;;;;;;5032234;28;20513;-78
2022/11/03 09:37:24;;;;;;;15.07;5.40;;;8.90;99.90;;;;;;5033859;28;20140;-78
2022/11/03 09:39:59;;;;;;;13.18;5.57;;;8.90;99.90;;;;;;5033475;28;20505;-78
2022/11/03 09:42:25;;;;;;;9.43;4.85;;;9.00;99.90;;;;;;5033641;28;20087;-78
2022/11/03 09:44:55;;;;;;;9.93;5.60;;;9.00;99.90;;;;;;5035502;28;20025;-78
2022/11/03 09:47:30;;;;;;;12.77;5.30;;;9.00;99.90;;;;;;5033966;28;20052;-78
2022/11/03 09:50:00;;;;;;;6.95;4.28;;;9.10;99.90;;;;;;5033369;28;20084;-78
2022/11/03 09:52:30;;;;;;;8.65;5.03;;;9.10;99.90;;;;;;5030975;28;20037;-78
2022/11/03 09:54:58;;;;;;;10.35;6.18;;;9.10;99.90;;;;;;5035407;28;20129;-78
2022/11/03 09:57:27;;;;;;;9.75;6.07;;;9.10;99.90;;;;;;5032141;28;20022;-79
2022/11/03 09:59:53;;;;;;;9.65;5.50;;;9.20;99.90;;;;;;5034308;28;20017;-78
2022/11/03 10:02:30;;;;;;;10.45;5.55;;;9.20;99.90;;;;;;5035535;28;20060;-78
2022/11/03 10:05:00;;;;;;;9.63;5.50;;;9.20;99.90;;;;;;5033528;28;20051;-78
2022/11/03 10:07:28;;;;;;;8.88;5.28;;;9.20;99.90;;;;;;5032980;28;20444;-78
2022/11/03 10:10:00;;;;;;;16.60;5.38;;;9.20;99.90;;;;;;5033086;28;20022;-78
2022/11/03 10:12:34;;;;;;;12.40;6.40;;;9.20;99.90;;;;;;5031844;28;20033;-78
2022/11/03 10:15:00;;;;;;;12.55;5.60;;;9.30;99.90;;;;;;5033124;28;20041;-78
2022/11/03 10:17:34;;;;;;;9.57;4.85;;;9.30;99.90;;;;;;5033914;28;20072;-78
2022/11/03 10:20:01;;;;;;;11.27;5.75;;;9.40;99.90;;;;;;5033707;28;20029;-78
2022/11/03 10:22:40;;;;;;;9.55;5.03;;;9.40;99.90;;;;;;5026490;28;20025;-78
2022/11/03 10:25:34;;;;;;;7.97;4.88;;;9.50;99.90;;;;;;5035534;28;20112;-78
2022/11/03 10:28:19;;;;;;;15.52;7.30;;;9.50;99.90;;;;;;5037224;28;20517;-78
2022/11/03 10:30:59;;;;;;;10.88;5.30;;;9.50;99.90;;;;;;5032929;28;20212;-78
2022/11/03 10:33:32;;;;;;;8.35;5.20;;;9.60;99.90;;;;;;5032089;28;20080;-78
2022/11/03 10:36:14;;;;;;;13.23;5.75;;;9.60;99.90;;;;;;5032675;28;20025;-78
2022/11/03 10:38:42;;;;;;;10.68;5.10;;;9.70;99.90;;;;;;5029370;28;20052;-78
2022/11/03 10:41:31;;;;;;;13.38;6.38;;;9.70;99.90;;;;;;5034980;28;20104;-78
2022/11/03 10:44:11;;;;;;;15.63;6.78;;;9.80;99.90;;;;;;5036485;28;20029;-78
2022/11/03 10:46:39;;;;;;;10.05;5.88;;;9.90;99.90;;;;;;5034941;28;20026;-78
2022/11/03 10:49:17;;;;;;;11.15;5.85;;;9.90;99.90;;;;;;5030810;28;20079;-78
2022/11/03 10:51:46;;;;;;;15.55;6.88;;;10.00;99.90;;;;;;5027634;28;20875;-78
2022/11/03 10:54:15;;;;;;;11.57;6.53;;;10.00;99.90;;;;;;5034661;28;20493;-78
2022/11/03 10:56:41;;;;;;;17.30;8.02;;;10.10;99.90;;;;;;5026433;28;20485;-78
2022/11/03 10:59:30;;;;;;;11.20;5.72;;;10.20;99.90;;;;;;5032173;28;20107;-78
2022/11/03 11:01:59;;;;;;;14.10;5.93;;;10.20;99.90;;;;;;5029905;28;20061;-78
2022/11/03 11:04:31;;;;;;;13.27;7.32;;;10.20;99.90;;;;;;5036208;28;20355;-78
2022/11/03 11:07:11;;;;;;;17.08;7.80;;;10.20;99.90;;;;;;5035348;28;20043;-78
2022/11/03 11:09:37;;;;;;;16.40;6.75;;;10.30;99.90;;;;;;5032111;28;20095;-79
2022/11/03 11:12:06;;;;;;;15.00;6.07;;;10.30;99.90;;;;;;5031836;28;20034;-78
2022/11/03 11:14:36;;;;;;;10.45;5.65;;;10.40;99.90;;;;;;5038144;28;20087;-78
2022/11/03 11:17:43;;;;;;;9.25;5.45;;;10.50;99.90;;;;;;5034095;28;20040;-78
2022/11/03 11:20:29;;;;;;;11.88;4.65;;;10.40;99.90;;;;;;5031715;28;20060;-78
2022/11/03 11:23:15;;;;;;;11.10;5.80;;;10.50;99.90;;;;;;5031507;28;20022;-78
2022/11/03 11:26:05;;;;;;;14.13;5.20;;;10.50;99.90;;;;;;5029380;28;20045;-78
2022/11/03 11:28:35;;;;;;;7.25;4.80;;;10.50;99.90;;;;;;5031000;28;20513;-77
2022/11/03 11:31:30;;;;;;;11.13;5.45;;;10.60;99.90;;;;;;5033675;28;20040;-78
2022/11/03 11:34:17;;;;;;;11.55;5.78;;;10.60;99.90;;;;;;5031162;28;20056;-78
2022/11/03 11:36:44;;;;;;;11.07;5.78;;;10.70;99.90;;;;;;5032790;28;20017;-78
2022/11/03 11:39:32;;;;;;;9.35;5.30;;;10.80;99.90;;;;;;5029252;28;20418;-77
2022/11/03 11:42:04;;;;;;;12.30;6.28;;;10.80;99.90;;;;;;5025865;28;20097;-78
2022/11/03 11:44:50;;;;;;;12.55;6.75;;;10.90;99.90;;;;;;5033652;28;20033;-77
2022/11/03 11:47:37;;;;;;;10.95;6.75;;;10.90;99.90;;;;;;5029906;28;20025;-77
2022/11/03 11:50:11;;;;;;;19.48;6.72;;;11.00;99.90;;;;;;5027495;28;20040;-77
2022/11/03 11:53:10;;;;;;;11.18;5.47;;;11.10;99.90;;;;;;5023009;28;20029;-77
2022/11/03 11:55:55;;;;;;;10.93;6.10;;;11.10;99.90;;;;;;5025287;28;20054;-78
2022/11/03 11:58:41;;;;;;;11.48;6.25;;;11.20;99.90;;;;;;5033380;28;20039;-77
2022/11/03 12:01:29;;;;;;;19.80;8.20;;;11.30;99.90;;;;;;5028754;28;20037;-77
2022/11/03 12:04:26;;;;;;;14.32;7.45;;;11.40;99.90;;;;;;5029301;28;20281;-77
2022/11/03 12:06:56;;;;;;;12.73;7.47;;;11.50;99.90;;;;;;5027967;28;20552;-77
2022/11/03 12:09:26;;;;;;;18.58;8.05;;;11.60;99.90;;;;;;5029126;28;20032;-77
2022/11/03 12:12:00;;;;;;;12.90;7.18;;;11.60;99.90;;;;;;5027023;28;20047;-77
2022/11/03 12:14:37;;;;;;;10.18;6.85;;;11.70;99.90;;;;;;5027004;28;20671;-78
2022/11/03 12:17:24;;;;;;;18.75;7.70;;;11.70;99.90;;;;;;5028419;28;20185;-77
2022/11/03 12:19:51;;;;;;;19.45;8.20;;;11.70;99.90;;;;;;5029616;28;20076;-77
2022/11/03 12:22:23;;;;;;;11.68;6.82;;;11.70;99.90;;;;;;5029237;28;20052;-78
2022/11/03 12:24:48;;;;;;;11.95;6.60;;;11.70;99.90;;;;;;5029105;28;20026;-77
2022/11/03 12:27:23;;;;;;;11.80;6.60;;;11.80;99.90;;;;;;5027125;28;20068;-77
2022/11/03 12:30:01;;;;;;;14.88;6.43;;;11.70;99.90;;;;;;5029263;28;20533;-78
2022/11/03 12:32:27;;;;;;;14.50;7.38;;;11.70;99.90;;;;;;5031869;28;20030;-78
2022/11/03 12:34:54;;;;;;;19.77;7.38;;;11.80;99.90;;;;;;5034121;28;20136;-78
2022/11/03 12:37:20;;;;;;;13.00;6.97;;;11.80;99.90;;;;;;5037093;28;20026;-78
2022/11/03 12:39:48;;;;;;;18.80;7.32;;;11.80;99.90;;;;;;5032719;28;20033;-77
2022/11/03 12:42:18;;;;;;;14.65;7.25;;;11.90;99.90;;;;;;5033377;28;20026;-78
2022/11/03 12:44:44;;;;;;;19.05;7.68;;;11.90;99.90;;;;;;5029574;28;20164;-77
2022/11/03 12:47:10;;;;;;;16.73;7.35;;;11.90;99.90;;;;;;5031506;28;20049;-78
2022/11/03 12:49:35;;;;;;;15.15;6.88;;;11.90;99.90;;;;;;5036513;28;20409;-78
2022/11/03 12:52:05;;;;;;;15.75;7.43;;;11.90;99.90;;;;;;5039485;28;20022;-77
2022/11/03 12:54:32;;;;;;;14.30;7.53;;;12.00;99.90;;;;;;5032259;28;20083;-78
2022/11/03 12:56:58;;;;;;;17.88;8.23;;;12.00;99.90;;;;;;5027845;28;20085;-77
2022/11/03 12:59:26;;;;;;;17.48;8.00;;;12.00;99.90;;;;;;5035421;28;20737;-78
2022/11/03 13:01:58;;;;;;;16.48;7.20;;;12.10;99.90;;;;;;5035029;28;20022;-78
2022/11/03 13:04:23;;;;;;;15.95;7.55;;;12.10;99.90;;;;;;5032410;28;20111;-78
2022/11/03 13:06:55;;;;;;;13.00;7.38;;;12.10;99.90;;;;;;5035893;28;20033;-78
2022/11/03 13:09:27;;;;;;;18.30;8.20;;;12.10;99.90;;;;;;5034336;28;20030;-78
2022/11/03 13:14:36;;;;;;;19.50;11.38;;;12.20;99.90;;;;;;5033369;28;20056;-78
2022/11/03 13:17:02;;;;;;;13.82;5.70;;;12.20;99.90;;;;;;5031782;28;20037;-78
2022/11/03 13:19:28;;;;;;;15.23;7.85;;;12.20;99.90;;;;;;5035145;28;20025;-77
2022/11/03 13:21:57;;;;;;;13.13;6.53;;;12.20;99.90;;;;;;5033004;28;20032;-78
2022/11/03 13:24:22;;;;;;;9.60;3.85;;;12.30;99.90;;;;;;5032197;28;20155;-78
2022/11/03 13:26:48;;;;;;;9.80;4.25;;;12.40;99.90;;;;;;5036198;28;20044;-78
2022/11/03 13:29:14;;;;;;;6.28;3.42;;;12.50;99.90;;;;;;5028225;28;20032;-78
2022/11/03 13:31:39;;;;;;;6.85;3.17;;;12.50;99.90;;;;;;5037939;28;20068;-78
2022/11/03 13:34:08;;;;;;;7.03;3.15;;;12.60;99.90;;;;;;5029697;28;20033;-78
2022/11/03 13:36:33;;;;;;;6.25;2.97;;;12.70;99.90;;;;;;5031819;28;20032;-78